Time;durP1;ratioP1;P1;durP2;ratioP2;P2;SDS_P1;SDS_P2;PMS_P1;PMS_P2;Temp;Humidity;BMP_temperature;BMP_pressure;BME280_temperature;BME280_humidity;BME280_pressure;Samples;Min_cycle;Max_cycle;Signal;HPM_P1;HPM_P2
2022/07/27 00:01:29;;;;;;;15.02;6.35;;;;;;;26.75;51.10;99811.19;4972407;28;20450;-75
2022/07/27 00:03:54;;;;;;;12.30;6.55;;;;;;;26.67;50.76;99817.69;4972309;28;20065;-76
2022/07/27 00:06:20;;;;;;;13.13;7.07;;;;;;;26.58;51.40;99819.81;4970090;28;20033;-74
2022/07/27 00:08:45;;;;;;;13.80;6.70;;;;;;;26.17;52.09;99817.00;4967202;28;20042;-75
2022/07/27 00:11:11;;;;;;;16.20;6.43;;;;;;;26.19;52.39;99822.22;4972465;28;20532;-75
2022/07/27 00:13:37;;;;;;;11.93;6.30;;;;;;;26.08;52.19;99806.75;4972225;28;20027;-75
2022/07/27 00:16:02;;;;;;;12.40;6.03;;;;;;;26.22;51.84;99836.19;4972172;28;20041;-79
2022/07/27 00:18:28;;;;;;;8.73;5.07;;;;;;;26.08;52.35;99819.97;4986879;28;20792;-80
2022/07/27 00:20:53;;;;;;;10.95;4.80;;;;;;;25.84;52.13;99796.16;4964179;28;20035;-81
2022/07/27 00:23:19;;;;;;;11.00;4.60;;;;;;;26.02;51.97;99828.09;4952710;28;20032;-80
2022/07/27 00:25:44;;;;;;;12.63;5.03;;;;;;;25.89;52.53;99822.44;4952819;28;20035;-80
2022/07/27 00:28:10;;;;;;;12.63;4.60;;;;;;;25.68;53.01;99833.72;4951825;28;20031;-78
2022/07/27 00:30:35;;;;;;;15.30;5.20;;;;;;;25.66;53.32;99819.69;4952554;28;20020;-80
2022/07/27 00:33:01;;;;;;;10.15;4.65;;;;;;;25.58;53.23;99818.25;4967320;28;20027;-80
2022/07/27 00:35:26;;;;;;;8.05;4.43;;;;;;;25.18;53.71;99770.28;4952586;28;20493;-81
2022/07/27 00:40:27;;;;;;;8.70;4.70;;;;;;;25.54;53.60;99830.72;5916668;23;20602;-82
2022/07/27 00:42:53;;;;;;;9.77;5.03;;;;;;;25.11;53.44;99759.06;5030690;28;20048;-81
2022/07/27 00:45:18;;;;;;;11.30;5.00;;;;;;;25.62;53.62;99844.53;5013085;28;20026;-81
2022/07/27 00:47:44;;;;;;;13.48;5.30;;;;;;;25.22;54.36;99798.31;5012885;28;20036;-80
2022/07/27 00:50:09;;;;;;;10.90;4.68;;;;;;;25.35;54.83;99841.03;5030870;28;20024;-80
2022/07/27 00:52:36;;;;;;;11.88;5.05;;;;;;;25.13;55.63;99823.25;5030613;28;20468;-80
2022/07/27 00:55:02;;;;;;;11.30;4.85;;;;;;;25.11;55.02;99835.66;5030693;28;20491;-81
2022/07/27 00:57:28;;;;;;;12.27;4.70;;;;;;;24.85;54.93;99796.94;5030741;28;20029;-81
2022/07/27 00:59:54;;;;;;;7.80;4.50;;;;;;;25.13;55.28;99838.25;5030702;28;20100;-81
2022/07/27 01:02:19;;;;;;;10.50;5.07;;;;;;;24.96;55.14;99822.94;5012707;28;20506;-81
2022/07/27 01:04:45;;;;;;;13.63;5.50;;;;;;;24.80;55.26;99794.44;5035356;28;20104;-81
2022/07/27 01:07:11;;;;;;;13.57;6.03;;;;;;;24.74;55.37;99793.78;5041935;28;20037;-80
2022/07/27 01:09:55;;;;;;;8.75;4.95;;;;;;;24.81;55.60;99821.69;5050674;28;20363;-82
2022/07/27 01:12:21;;;;;;;8.30;5.00;;;;;;;24.82;55.83;99842.78;5032630;28;20028;-81
2022/07/27 01:14:48;;;;;;;11.40;5.18;;;;;;;24.73;55.88;99829.84;5050235;28;20025;-81
2022/07/27 01:17:15;;;;;;;9.68;5.30;;;;;;;24.61;55.75;99823.16;5032365;28;20029;-81
2022/07/27 01:19:40;;;;;;;10.23;4.70;;;;;;;24.49;55.89;99834.97;5050684;28;20108;-82
2022/07/27 01:22:06;;;;;;;10.32;5.70;;;;;;;24.51;55.85;99841.06;5032812;28;20133;-81
2022/07/27 01:24:35;;;;;;;8.18;5.18;;;;;;;24.40;55.76;99832.63;5021156;28;20025;-81
2022/07/27 01:27:02;;;;;;;7.80;4.78;;;;;;;24.40;55.81;99832.63;5026724;28;20401;-82
2022/07/27 01:29:28;;;;;;;10.90;5.97;;;;;;;24.34;55.67;99831.00;5012376;28;20411;-81
2022/07/27 01:31:54;;;;;;;8.35;5.05;;;;;;;23.99;56.28;99790.75;5029900;28;20095;-81
2022/07/27 01:34:19;;;;;;;12.25;5.50;;;;;;;24.26;56.02;99834.78;5029878;28;20487;-81
2022/07/27 01:36:45;;;;;;;8.90;5.20;;;;;;;23.99;56.39;99796.00;5030027;28;20059;-81
2022/07/27 01:39:12;;;;;;;9.57;5.13;;;;;;;24.29;55.98;99826.78;5030077;28;20034;-81
2022/07/27 01:41:37;;;;;;;8.43;5.43;;;;;;;24.36;55.79;99846.78;5033747;28;20128;-80
2022/07/27 01:44:03;;;;;;;11.15;5.53;;;;;;;24.19;56.11;99823.56;5033452;28;20179;-81
2022/07/27 01:46:28;;;;;;;7.07;5.07;;;;;;;23.94;56.47;99790.00;5033238;28;20610;-81
2022/07/27 01:48:54;;;;;;;11.32;5.45;;;;;;;23.79;57.12;99782.50;5033611;28;20029;-81
2022/07/27 01:51:19;;;;;;;11.35;5.70;;;;;;;23.99;56.62;99806.56;5033619;28;20037;-81
2022/07/27 01:53:45;;;;;;;10.70;5.65;;;;;;;24.01;56.07;99807.38;5033366;28;20468;-81
2022/07/27 01:56:11;;;;;;;9.70;5.72;;;;;;;24.13;57.05;99836.94;5032088;28;20032;-82
2022/07/27 01:58:38;;;;;;;10.18;5.55;;;;;;;23.99;57.27;99829.41;5033225;28;20108;-80
2022/07/27 02:03:34;;;;;;;10.73;5.47;;;;;;;23.62;57.35;99797.03;5019867;22;20068;-82
2022/07/27 02:06:00;;;;;;;9.30;5.20;;;;;;;23.53;57.74;99778.84;5013564;28;20021;-81
2022/07/27 02:08:26;;;;;;;9.15;5.30;;;;;;;23.78;57.69;99834.38;5013422;28;20600;-81
2022/07/27 02:13:35;;;;;;;12.63;6.25;;;;;;;23.40;59.12;99823.09;5013350;28;20111;-81
2022/07/27 02:16:01;;;;;;;15.45;6.80;;;;;;;23.44;58.83;99830.03;4995818;28;20025;-80
2022/07/27 02:21:48;;;;;;;9.05;5.70;;;;;;;23.35;59.52;99839.03;5085501;23;20092;-80
2022/07/27 02:24:14;;;;;;;11.15;6.10;;;;;;;23.20;59.80;99810.44;5033024;28;20060;-81
2022/07/27 02:26:39;;;;;;;10.10;5.57;;;;;;;23.33;59.87;99832.03;5032942;28;20027;-81
2022/07/27 02:29:05;;;;;;;9.85;5.80;;;;;;;22.99;60.33;99823.22;5031580;28;20026;-81
2022/07/27 02:31:30;;;;;;;10.38;6.40;;;;;;;22.58;61.49;99815.41;5032752;28;20025;-80
2022/07/27 02:33:56;;;;;;;10.13;6.18;;;;;;;22.63;62.00;99828.47;5032731;28;20083;-86
2022/07/27 02:36:21;;;;;;;9.35;5.88;;;;;;;22.20;63.18;99787.31;5015299;28;20046;-86
2022/07/27 02:38:47;;;;;;;16.38;6.60;;;;;;;22.44;63.23;99813.09;5015012;28;20086;-86
2022/07/27 02:41:12;;;;;;;9.10;5.97;;;;;;;22.43;62.33;99789.44;4990663;28;20039;-85
2022/07/27 02:43:38;;;;;;;13.43;6.63;;;;;;;22.62;63.54;99843.38;4989933;28;20750;-87
2022/07/27 02:46:03;;;;;;;12.85;7.32;;;;;;;22.63;63.56;99846.88;4974184;28;20531;-86
2022/07/27 02:48:31;;;;;;;36.47;23.27;;;;;;;22.67;63.64;99837.13;4974266;28;20146;-81
2022/07/27 02:50:59;;;;;;;29.23;18.65;;;;;;;22.76;63.31;99845.69;4990038;28;20045;-80
2022/07/27 02:53:25;;;;;;;15.88;9.88;;;;;;;22.51;63.00;99813.81;4988087;28;20030;-82
2022/07/27 02:55:50;;;;;;;12.40;8.18;;;;;;;22.34;63.20;99773.84;4990054;28;20426;-83
2022/07/27 02:58:16;;;;;;;12.85;6.53;;;;;;;22.79;62.75;99844.75;4990347;28;20157;-75
2022/07/27 03:00:41;;;;;;;11.82;7.03;;;;;;;22.70;63.10;99845.81;4989926;28;20050;-79
2022/07/27 03:03:07;;;;;;;8.35;6.00;;;;;;;22.58;63.26;99843.47;4989648;28;20034;-82
2022/07/27 03:05:32;;;;;;;10.05;6.07;;;;;;;22.48;63.91;99860.38;4977045;28;20041;-77
2022/07/27 03:07:58;;;;;;;13.23;6.80;;;;;;;22.47;63.74;99859.50;4989776;28;20046;-76
2022/07/27 03:10:23;;;;;;;13.00;7.72;;;;;;;22.33;63.94;99859.78;4989853;28;20033;-78
2022/07/27 03:12:49;;;;;;;13.65;7.07;;;;;;;22.56;63.27;99858.44;5008299;28;20042;-75
2022/07/27 03:15:14;;;;;;;13.40;7.30;;;;;;;22.41;63.51;99847.34;5034507;28;20435;-75
2022/07/27 03:17:40;;;;;;;15.52;7.35;;;;;;;22.38;63.40;99846.53;5035338;28;20073;-80
2022/07/27 03:20:06;;;;;;;12.68;7.70;;;;;;;22.36;63.43;99870.22;5031861;28;20025;-76
2022/07/27 03:22:32;;;;;;;15.07;7.85;;;;;;;21.79;64.14;99837.22;5029720;28;20054;-77
2022/07/27 03:24:57;;;;;;;13.18;7.38;;;;;;;21.67;64.94;99854.09;5030915;28;20463;-76
2022/07/27 03:27:23;;;;;;;15.15;7.07;;;;;;;21.50;64.38;99813.19;5030209;28;20041;-78
2022/07/27 03:29:48;;;;;;;12.15;6.60;;;;;;;21.91;63.77;99857.13;5030722;28;20051;-77
2022/07/27 03:32:14;;;;;;;13.52;7.38;;;;;;;21.79;63.49;99803.94;5030736;28;20025;-78
2022/07/27 03:34:39;;;;;;;17.02;8.88;;;;;;;22.12;63.49;99851.44;5029907;28;20036;-77
2022/07/27 03:37:05;;;;;;;12.18;7.15;;;;;;;22.32;62.65;99857.16;5012278;28;20044;-77
2022/07/27 03:39:30;;;;;;;13.27;7.53;;;;;;;22.23;63.26;99850.34;5030234;28;20017;-77
2022/07/27 03:41:56;;;;;;;9.02;6.85;;;;;;;22.17;63.60;99859.25;5030568;28;20068;-75
2022/07/27 03:44:21;;;;;;;13.10;7.45;;;;;;;22.20;63.96;99850.41;5030342;28;20029;-75
2022/07/27 03:46:46;;;;;;;13.02;7.40;;;;;;;22.32;63.83;99862.41;5030015;28;20554;-76
2022/07/27 03:49:12;;;;;;;17.33;8.05;;;;;;;22.23;63.83;99851.22;5012699;28;20064;-77
2022/07/27 03:51:37;;;;;;;13.93;7.93;;;;;;;22.07;64.02;99836.63;5030330;28;20021;-79
2022/07/27 03:54:03;;;;;;;13.20;7.50;;;;;;;22.31;64.10;99858.94;5030443;28;20029;-77
2022/07/27 03:56:28;;;;;;;16.17;7.75;;;;;;;22.29;64.30;99860.72;5029412;28;20033;-79
2022/07/27 03:58:54;;;;;;;14.63;8.07;;;;;;;22.34;63.79;99850.13;5029065;28;20037;-78
2022/07/27 04:01:19;;;;;;;16.38;8.70;;;;;;;22.35;64.88;99871.13;5029036;28;20060;-77
2022/07/27 04:03:45;;;;;;;18.63;9.18;;;;;;;22.36;64.73;99864.97;5011994;28;20052;-77
2022/07/27 04:06:10;;;;;;;14.07;7.80;;;;;;;22.40;64.27;99869.28;5030198;28;20057;-74
2022/07/27 04:08:36;;;;;;;13.82;7.32;;;;;;;22.48;63.90;99868.25;5021500;28;20045;-74
2022/07/27 04:11:01;;;;;;;19.17;8.82;;;;;;;22.44;63.62;99862.19;5003985;28;20036;-76
2022/07/27 04:13:27;;;;;;;13.88;8.77;;;;;;;22.51;64.24;99861.16;5028063;28;20025;-75
2022/07/27 04:15:52;;;;;;;18.58;8.40;;;;;;;22.54;63.79;99854.97;5016874;28;20048;-77
2022/07/27 04:18:17;;;;;;;13.82;7.93;;;;;;;22.74;64.44;99881.72;5020207;28;20409;-77
2022/07/27 04:20:43;;;;;;;13.98;7.82;;;;;;;22.77;64.12;99886.03;5027898;28;20049;-74
2022/07/27 04:23:08;;;;;;;12.77;7.25;;;;;;;22.85;62.56;99878.81;5030016;28;20025;-73
2022/07/27 04:25:34;;;;;;;15.07;7.07;;;;;;;22.70;64.10;99881.81;5029909;28;20392;-73
2022/07/27 04:27:59;;;;;;;14.77;7.50;;;;;;;22.74;64.16;99894.88;5030039;28;20472;-78
2022/07/27 04:30:25;;;;;;;19.80;7.43;;;;;;;22.52;64.36;99833.97;5029947;28;20707;-74
2022/07/27 04:32:51;;;;;;;12.30;7.18;;;;;;;22.95;63.71;99890.00;5030040;28;20045;-74
2022/07/27 04:35:16;;;;;;;12.27;7.20;;;;;;;22.98;63.49;99899.59;5030264;28;20029;-74
2022/07/27 04:37:41;;;;;;;14.27;7.20;;;;;;;22.73;63.90;99901.03;5030118;28;20064;-74
2022/07/27 04:40:08;;;;;;;15.77;7.47;;;;;;;22.37;65.00;99858.84;5024024;28;20029;-74
2022/07/27 04:42:33;;;;;;;17.02;8.18;;;;;;;22.72;64.45;99896.66;5028159;28;20053;-74
2022/07/27 04:44:58;;;;;;;15.13;8.27;;;;;;;22.67;65.03;99892.38;5029619;28;20076;-74
2022/07/27 04:47:25;;;;;;;16.55;7.90;;;;;;;22.90;64.14;99908.53;5029440;28;20030;-72
2022/07/27 04:49:50;;;;;;;11.75;7.78;;;;;;;23.05;64.02;99909.97;5029924;28;20030;-76
2022/07/27 04:52:16;;;;;;;9.35;7.30;;;;;;;23.16;63.11;99908.84;5018537;28;20021;-79
2022/07/27 04:54:42;;;;;;;11.80;7.63;;;;;;;23.26;62.10;99897.19;5026954;28;20108;-80
2022/07/27 04:57:07;;;;;;;16.70;7.07;;;;;;;23.47;61.06;99916.00;5029765;28;20087;-80
2022/07/27 04:59:33;;;;;;;15.35;6.70;;;;;;;23.49;60.80;99888.72;5028581;28;20510;-81
2022/07/27 05:01:58;;;;;;;17.85;6.60;;;;;;;23.64;59.74;99907.66;5026034;28;20029;-84
2022/07/27 05:04:23;;;;;;;18.13;6.43;;;;;;;23.77;59.35;99921.38;5031140;28;20088;-84
2022/07/27 05:06:49;;;;;;;10.43;6.35;;;;;;;23.72;58.85;99897.78;5029151;28;20021;-81
2022/07/27 05:09:14;;;;;;;15.07;7.25;;;;;;;23.80;58.54;99884.41;5028717;28;20034;-79
2022/07/27 05:11:40;;;;;;;9.60;6.60;;;;;;;23.79;57.95;99849.28;5028562;28;20686;-80
2022/07/27 05:14:05;;;;;;;10.43;5.95;;;;;;;24.22;58.00;99910.50;5029303;28;20053;-77
2022/07/27 05:16:30;;;;;;;7.63;6.47;;;;;;;24.23;58.55;99906.97;5032253;28;20028;-79
2022/07/27 05:18:56;;;;;;;12.82;6.82;;;;;;;24.15;59.77;99911.59;5032977;28;20021;-80
2022/07/27 05:21:22;;;;;;;9.55;6.38;;;;;;;23.85;59.00;99893.03;5032238;28;20053;-78
2022/07/27 05:23:47;;;;;;;10.77;6.10;;;;;;;23.63;60.96;99893.63;5032802;28;20028;-83
2022/07/27 05:26:13;;;;;;;9.40;6.80;;;;;;;23.70;60.03;99900.47;5032968;28;20404;-82
2022/07/27 05:28:38;;;;;;;13.05;6.88;;;;;;;23.57;60.96;99902.53;4971093;28;20141;-81
2022/07/27 05:31:04;;;;;;;7.30;6.20;;;;;;;23.75;60.84;99908.22;4970227;28;20042;-81
2022/07/27 05:33:31;;;;;;;13.57;6.78;;;;;;;23.96;61.73;99930.53;4972255;28;20041;-82
2022/07/27 05:36:16;;;;;;;10.60;6.10;;;;;;;24.08;61.04;99925.88;4937305;29;20035;-84
2022/07/27 05:38:42;;;;;;;9.82;6.40;;;;;;;24.29;60.63;99935.81;4932381;29;20043;-82
2022/07/27 05:41:08;;;;;;;10.57;6.68;;;;;;;24.46;60.23;99932.69;4934952;29;20095;-81
2022/07/27 05:43:34;;;;;;;12.43;6.55;;;;;;;24.59;59.23;99905.94;4918543;29;20035;-82
2022/07/27 05:46:01;;;;;;;12.35;6.55;;;;;;;24.73;58.83;99902.91;4932697;29;20039;-83
2022/07/27 05:48:27;;;;;;;8.77;6.82;;;;;;;24.88;59.31;99923.53;4916662;29;20510;-85
2022/07/27 05:50:53;;;;;;;11.02;6.85;;;;;;;24.15;59.30;99830.72;4932413;29;20071;-83
2022/07/27 05:53:18;;;;;;;13.13;6.68;;;;;;;24.68;58.83;99906.53;4916576;29;20114;-85
2022/07/27 05:55:44;;;;;;;9.35;6.57;;;;;;;24.95;58.32;99917.16;4916877;29;20035;-83
2022/07/27 05:58:09;;;;;;;17.50;6.50;;;;;;;25.14;56.72;99911.28;4931315;29;20027;-82
2022/07/27 06:00:35;;;;;;;9.25;6.22;;;;;;;25.39;55.80;99923.75;4962992;28;20047;-82
2022/07/27 06:03:00;;;;;;;9.30;6.32;;;;;;;25.41;55.96;99896.34;4951434;29;20027;-81
2022/07/27 06:05:26;;;;;;;9.25;6.10;;;;;;;25.52;55.38;99882.75;4951300;29;20039;-83
2022/07/27 06:08:02;;;;;;;11.10;6.30;;;;;;;25.96;54.31;99925.28;4951029;28;20034;-83
2022/07/27 06:10:32;;;;;;;9.02;5.90;;;;;;;26.05;51.47;99913.50;4951318;28;20031;-82
2022/07/27 06:12:58;;;;;;;9.05;6.10;;;;;;;26.10;51.54;99918.66;4968508;28;20480;-80
2022/07/27 06:15:24;;;;;;;10.57;6.28;;;;;;;26.32;52.03;99930.19;4970500;28;20031;-81
2022/07/27 06:17:52;;;;;;;10.18;5.82;;;;;;;26.43;50.16;99928.91;4970455;28;20026;-81
2022/07/27 06:20:19;;;;;;;11.38;5.32;;;;;;;26.48;50.35;99932.25;5004766;28;20519;-81
2022/07/27 06:22:50;;;;;;;11.07;5.32;;;;;;;26.46;50.41;99936.75;5030504;28;20054;-82
2022/07/27 06:25:16;;;;;;;10.23;5.22;;;;;;;26.58;48.67;99931.00;5030170;28;20021;-83
2022/07/27 06:27:43;;;;;;;7.53;4.80;;;;;;;26.60;48.96;99910.59;5030691;28;20030;-84
2022/07/27 06:30:09;;;;;;;7.50;4.20;;;;;;;26.83;46.82;99921.25;5030657;28;20022;-83
2022/07/27 06:32:34;;;;;;;7.88;4.93;;;;;;;26.79;47.14;99899.31;5029167;28;20107;-84
2022/07/27 06:35:01;;;;;;;7.45;4.55;;;;;;;26.91;48.77;99913.88;5028487;28;20099;-81
2022/07/27 06:37:29;;;;;;;8.15;4.40;;;;;;;27.10;47.26;99936.06;5030236;28;20484;-80
2022/07/27 06:39:59;;;;;;;8.85;4.90;;;;;;;27.05;46.06;99905.38;5028096;28;20045;-81
2022/07/27 06:42:26;;;;;;;9.32;4.90;;;;;;;27.27;46.10;99922.09;5011873;28;20417;-84
2022/07/27 06:44:51;;;;;;;10.70;5.93;;;;;;;27.11;46.41;99892.72;5011821;28;20030;-81
2022/07/27 06:47:16;;;;;;;10.88;6.32;;;;;;;27.43;46.81;99925.03;5012306;28;20021;-80
2022/07/27 06:49:42;;;;;;;7.40;5.78;;;;;;;27.50;45.82;99922.13;5011965;28;20040;-80
2022/07/27 06:52:07;;;;;;;12.32;7.38;;;;;;;27.38;46.27;99910.22;5029705;28;20487;-85
2022/07/27 06:54:33;;;;;;;14.45;8.32;;;;;;;27.47;46.48;99920.47;5029585;28;20036;-80
2022/07/27 06:56:58;;;;;;;10.77;7.05;;;;;;;27.37;46.62;99889.94;5029559;28;20060;-81
2022/07/27 06:59:24;;;;;;;11.95;8.88;;;;;;;27.63;46.38;99918.03;5022602;28;20039;-84
2022/07/27 07:01:50;;;;;;;12.15;7.53;;;;;;;27.52;46.50;99877.84;5011322;28;20148;-84
2022/07/27 07:04:16;;;;;;;10.90;8.10;;;;;;;27.75;46.35;99885.66;5029677;28;20030;-80
2022/07/27 07:06:41;;;;;;;9.20;7.63;;;;;;;27.83;46.31;99893.28;5028760;28;20026;-82
2022/07/27 07:09:07;;;;;;;11.80;7.50;;;;;;;27.99;46.44;99914.69;5024232;28;20119;-83
2022/07/27 07:11:32;;;;;;;9.98;8.13;;;;;;;27.97;45.89;99895.31;5019651;28;20029;-83
2022/07/27 07:13:58;;;;;;;12.40;8.15;;;;;;;28.02;46.15;99893.31;5006707;28;20067;-81
2022/07/27 07:16:23;;;;;;;10.65;7.53;;;;;;;28.15;45.59;99904.28;5002961;28;20021;-80
2022/07/27 07:18:49;;;;;;;10.13;8.13;;;;;;;28.25;45.97;99916.19;5023774;28;20029;-82
2022/07/27 07:21:15;;;;;;;10.35;8.45;;;;;;;28.15;45.89;99898.97;4984034;28;1286054;-81
2022/07/27 07:23:41;;;;;;;11.15;8.50;;;;;;;28.17;46.06;99897.09;4980621;28;20427;-82
2022/07/27 07:26:07;;;;;;;9.30;8.30;;;;;;;28.27;46.41;99908.16;5028385;28;20508;-80
2022/07/27 07:28:32;;;;;;;11.00;7.68;;;;;;;28.23;46.71;99890.66;5029979;28;20025;-82
2022/07/27 07:30:59;;;;;;;10.20;8.68;;;;;;;28.14;45.87;99849.47;5009722;28;20476;-78
2022/07/27 07:33:25;;;;;;;9.10;7.60;;;;;;;28.54;45.97;99891.91;5029411;28;20419;-82
2022/07/27 07:35:51;;;;;;;11.35;8.40;;;;;;;28.65;45.88;99896.69;5027757;28;20025;-80
2022/07/27 07:38:16;;;;;;;11.98;8.23;;;;;;;28.62;45.87;99888.88;5021363;28;20048;-79
2022/07/27 07:40:42;;;;;;;9.27;7.50;;;;;;;28.80;45.72;99898.66;4992352;28;20935;-79
2022/07/27 07:43:07;;;;;;;8.70;7.75;;;;;;;28.86;44.91;99898.34;5019942;28;20091;-79
2022/07/27 07:45:36;;;;;;;8.75;7.55;;;;;;;28.80;45.72;99868.53;5020458;28;20610;-81
2022/07/27 07:48:04;;;;;;;10.82;7.55;;;;;;;28.90;45.72;99896.41;5021218;28;20514;-79
2022/07/27 07:50:29;;;;;;;10.65;8.07;;;;;;;28.83;45.72;99865.75;5011519;28;20380;-79
2022/07/27 07:52:55;;;;;;;8.52;7.65;;;;;;;29.13;44.57;99902.38;5026466;28;20037;-80
2022/07/27 07:55:27;;;;;;;9.82;7.95;;;;;;;29.04;44.36;99895.72;5029904;28;20032;-80
2022/07/27 07:57:53;;;;;;;11.13;7.82;;;;;;;29.15;44.22;99904.03;5029407;28;20013;-80
2022/07/27 08:00:19;;;;;;;12.35;8.40;;;;;;;29.11;44.50;99881.22;5029999;28;20033;-83
2022/07/27 08:02:51;;;;;;;9.57;8.63;;;;;;;29.39;43.89;99898.44;5030067;28;20032;-84
2022/07/27 08:05:16;;;;;;;11.15;8.95;;;;;;;29.16;43.67;99871.19;5029749;28;20090;-84
2022/07/27 08:07:43;;;;;;;10.18;9.07;;;;;;;29.45;44.31;99903.47;5011713;28;20104;-81
2022/07/27 08:10:10;;;;;;;12.93;8.68;;;;;;;29.42;43.48;99874.34;5029922;28;20377;-80
2022/07/27 08:12:38;;;;;;;10.90;8.93;;;;;;;29.51;43.66;99870.38;5030023;28;20033;-82
2022/07/27 08:15:05;;;;;;;11.20;8.75;;;;;;;29.74;42.97;99884.28;5030088;28;20029;-82
2022/07/27 08:17:31;;;;;;;9.85;8.75;;;;;;;29.92;43.01;99882.47;5012365;28;20029;-79
2022/07/27 08:19:56;;;;;;;13.55;8.73;;;;;;;30.01;42.84;99884.66;5007220;28;20049;-79
2022/07/27 08:22:23;;;;;;;13.35;9.10;;;;;;;30.05;42.51;99869.38;5007574;28;20125;-80
2022/07/27 08:24:48;;;;;;;12.85;9.93;;;;;;;30.26;42.23;99886.84;5007739;28;20038;-79
2022/07/27 08:27:14;;;;;;;10.07;8.55;;;;;;;30.32;41.97;99864.34;5007518;28;20092;-78
2022/07/27 08:29:39;;;;;;;10.20;9.10;;;;;;;30.59;41.78;99874.44;5007640;28;20045;-78
2022/07/27 08:32:05;;;;;;;11.60;9.13;;;;;;;30.65;41.53;99869.59;5007161;28;20575;-87
2022/07/27 08:34:31;;;;;;;14.98;9.45;;;;;;;30.66;41.15;99867.81;4991092;28;20054;-82
2022/07/27 08:36:57;;;;;;;12.25;9.25;;;;;;;30.82;42.74;99879.31;5008020;28;20073;-80
2022/07/27 08:39:23;;;;;;;9.25;8.15;;;;;;;30.85;40.61;99866.78;5007608;28;20074;-81
2022/07/27 08:41:52;;;;;;;10.32;9.27;;;;;;;30.98;39.70;99863.31;5007490;28;20025;-80
2022/07/27 08:44:22;;;;;;;13.80;9.27;;;;;;;30.97;41.14;99868.72;4991123;28;20038;-80
2022/07/27 08:46:49;;;;;;;11.45;9.02;;;;;;;30.91;41.13;99861.09;4990776;28;20499;-80
2022/07/27 08:49:15;;;;;;;9.68;8.68;;;;;;;31.07;40.55;99861.94;5007626;28;20089;-81
2022/07/27 08:51:40;;;;;;;10.02;8.95;;;;;;;31.19;40.99;99867.50;5029206;28;20602;-80
2022/07/27 08:54:07;;;;;;;10.57;8.65;;;;;;;31.01;40.53;99854.25;5016201;28;20615;-85
2022/07/27 08:56:32;;;;;;;10.80;8.50;;;;;;;30.86;41.41;99853.34;5033175;28;20044;-82
2022/07/27 08:58:58;;;;;;;10.07;9.18;;;;;;;31.02;41.28;99861.31;5033752;28;20108;-78
2022/07/27 09:01:23;;;;;;;14.75;9.57;;;;;;;31.29;40.67;99864.19;5015586;28;20017;-80
2022/07/27 09:03:49;;;;;;;10.75;9.43;;;;;;;31.27;40.30;99847.41;5033387;28;20025;-80
2022/07/27 09:06:43;;;;;;;10.45;9.45;;;;;;;31.37;40.76;99847.72;5033679;28;20029;-80
2022/07/27 09:09:13;;;;;;;14.20;9.68;;;;;;;31.34;40.93;99807.06;5033476;28;20099;-80
2022/07/27 09:11:39;;;;;;;11.52;9.50;;;;;;;31.69;40.14;99833.41;5033321;28;20053;-80
2022/07/27 09:14:06;;;;;;;11.15;9.40;;;;;;;31.73;40.08;99814.47;5014146;28;20041;-80
2022/07/27 09:16:33;;;;;;;10.18;9.15;;;;;;;32.01;39.68;99850.09;5033334;28;20468;-79
2022/07/27 09:19:02;;;;;;;10.60;9.50;;;;;;;31.93;40.04;99836.38;5015635;28;20073;-79
2022/07/27 09:21:28;;;;;;;10.65;9.52;;;;;;;32.10;39.32;99843.31;5015251;28;20052;-86
2022/07/27 09:24:13;;;;;;;12.73;8.85;;;;;;;32.24;40.37;99839.81;5033245;28;20037;-80
2022/07/27 09:26:39;;;;;;;10.43;8.95;;;;;;;32.38;38.83;99821.06;5033240;28;20095;-80
2022/07/27 09:29:12;;;;;;;10.52;8.73;;;;;;;32.55;38.78;99844.03;5032710;28;20447;-80
2022/07/27 09:31:49;;;;;;;9.80;8.25;;;;;;;32.48;38.99;99839.19;5032986;28;20058;-80
2022/07/27 09:34:33;;;;;;;11.05;8.98;;;;;;;32.05;39.10;99776.00;5033276;28;20029;-80
2022/07/27 09:36:59;;;;;;;10.18;9.18;;;;;;;32.62;39.13;99839.13;5032606;28;20037;-79
2022/07/27 09:39:26;;;;;;;9.90;8.90;;;;;;;32.83;40.88;99842.25;5033022;28;20029;-78
2022/07/27 09:42:01;;;;;;;10.70;9.60;;;;;;;32.79;39.12;99819.34;5032773;28;20033;-79
2022/07/27 09:44:37;;;;;;;10.73;8.25;;;;;;;33.05;38.38;99836.31;5032948;28;20029;-81
2022/07/27 09:47:25;;;;;;;11.68;9.00;;;;;;;32.94;37.93;99838.00;5032695;28;20036;-80
2022/07/27 09:49:51;;;;;;;9.63;8.48;;;;;;;32.64;37.83;99762.41;5032886;28;20021;-80
2022/07/27 09:52:24;;;;;;;10.70;8.70;;;;;;;33.40;36.40;99845.63;5029473;28;20041;-80
2022/07/27 09:54:50;;;;;;;9.60;8.38;;;;;;;33.58;36.85;99843.47;5014947;28;20116;-82
2022/07/27 09:57:17;;;;;;;10.27;8.20;;;;;;;33.62;36.43;99815.56;5032351;28;20033;-81
2022/07/27 09:59:43;;;;;;;9.95;8.63;;;;;;;33.80;37.81;99815.22;5031949;28;20116;-77
2022/07/27 10:02:12;;;;;;;11.40;8.57;;;;;;;33.93;38.24;99816.06;5014142;28;20108;-80
2022/07/27 10:04:37;;;;;;;;;;;;;;;34.02;35.28;99817.22;5032527;28;20488;-78
2022/07/27 10:07:03;;;;;;;10.27;7.82;;;;;;;34.02;34.71;99822.56;5032321;28;19971;-78
2022/07/27 10:09:31;;;;;;;10.13;8.10;;;;;;;34.20;34.03;99812.38;5031963;28;20121;-79
2022/07/27 10:11:57;;;;;;;7.95;7.18;;;;;;;34.27;34.08;99810.09;5007095;28;20030;-78
2022/07/27 10:14:24;;;;;;;8.93;7.78;;;;;;;34.49;31.88;99818.31;5027298;28;20040;-78
2022/07/27 10:16:51;;;;;;;8.30;7.40;;;;;;;34.59;32.02;99806.88;5032211;28;20037;-82
2022/07/27 10:19:38;;;;;;;9.00;7.82;;;;;;;34.78;32.05;99811.72;5032401;28;20037;-80
2022/07/27 10:22:04;;;;;;;8.75;7.85;;;;;;;34.79;32.54;99808.94;5031812;28;20049;-79
2022/07/27 10:24:33;;;;;;;13.52;8.07;;;;;;;34.84;32.84;99803.22;5014218;28;20423;-82
2022/07/27 10:27:19;;;;;;;9.00;7.72;;;;;;;35.04;32.14;99801.72;5032664;28;20056;-79
2022/07/27 10:29:47;;;;;;;10.32;8.05;;;;;;;35.29;33.59;99808.75;5032354;28;20022;-79
2022/07/27 10:32:26;;;;;;;9.57;7.68;;;;;;;35.33;31.54;99797.78;5032265;28;20029;-78
2022/07/27 10:34:51;;;;;;;;;;;;;;;35.33;30.84;99808.50;4983843;28;20451;-79
2022/07/27 10:37:27;;;;;;;8.63;7.78;;;;;;;35.45;30.80;99799.53;5032159;28;19909;-79
2022/07/27 10:42:37;;;;;;;8.45;7.35;;;;;;;35.19;30.91;99746.03;5021194;28;20044;-79
2022/07/27 10:45:08;;;;;;;8.05;7.25;;;;;;;35.27;32.56;99756.19;5032092;28;20140;-80
2022/07/27 10:47:46;;;;;;;8.27;7.47;;;;;;;35.44;31.09;99787.06;5031628;28;20025;-78
2022/07/27 10:50:14;;;;;;;7.95;7.15;;;;;;;35.23;31.11;99797.63;5032306;28;20029;-80
2022/07/27 10:52:57;;;;;;;12.68;7.45;;;;;;;35.30;29.96;99794.38;5026093;28;20044;-78
2022/07/27 10:55:28;;;;;;;8.35;7.32;;;;;;;35.71;29.79;99793.94;5031694;28;20118;-80
2022/07/27 10:58:14;;;;;;;8.55;7.40;;;;;;;35.91;30.09;99774.41;5031886;28;20029;-80
2022/07/27 11:00:49;;;;;;;9.48;6.80;;;;;;;36.08;28.56;99772.19;5031008;28;20042;-79
2022/07/27 11:03:22;;;;;;;8.02;7.22;;;;;;;36.47;29.11;99780.66;5031804;28;20045;-79
2022/07/27 11:05:57;;;;;;;8.32;6.75;;;;;;;36.83;30.26;99788.47;5025999;28;20057;-80
2022/07/27 11:08:30;;;;;;;7.65;6.95;;;;;;;36.99;27.66;99788.06;5021713;28;20032;-83
2022/07/27 11:10:57;;;;;;;8.57;7.78;;;;;;;36.89;28.12;99764.63;5021049;28;20026;-85
2022/07/27 11:13:24;;;;;;;8.85;7.95;;;;;;;37.00;27.99;99771.78;5019474;28;20467;-81
2022/07/27 11:16:05;;;;;;;7.82;7.03;;;;;;;37.07;29.59;99743.38;5021999;28;20028;-81
2022/07/27 11:18:37;;;;;;;9.02;7.78;;;;;;;37.45;26.74;99775.16;5011677;28;20045;-84
2022/07/27 11:21:29;;;;;;;7.68;6.97;;;;;;;37.59;26.55;99772.13;5021238;28;20085;-80
2022/07/27 11:24:22;;;;;;;7.88;6.85;;;;;;;37.80;27.79;99774.75;5020462;28;20037;-81
2022/07/27 11:26:50;;;;;;;10.85;6.57;;;;;;;37.98;26.80;99769.56;4968642;28;20178;-83
2022/07/27 11:29:17;;;;;;;7.45;6.40;;;;;;;38.16;26.66;99768.91;4969222;28;20121;-84
2022/07/27 11:31:45;;;;;;;9.98;6.88;;;;;;;38.32;26.11;99765.69;4969258;28;20066;-82
2022/07/27 11:34:12;;;;;;;7.60;6.90;;;;;;;38.41;26.44;99764.00;4969240;28;20035;-86
2022/07/27 11:36:44;;;;;;;8.48;6.90;;;;;;;38.49;25.54;99764.16;4969333;28;20031;-84
2022/07/27 11:39:15;;;;;;;11.75;6.82;;;;;;;38.30;25.27;99728.09;4969197;28;20030;-83
2022/07/27 11:41:42;;;;;;;8.38;6.55;;;;;;;38.31;27.77;99715.47;4953192;28;20042;-87
2022/07/27 11:44:28;;;;;;;15.45;7.30;;;;;;;38.55;25.13;99746.56;4969032;28;20129;-81